Allisona, Tennessee
Current Conditions -  °F | °C
As of 9:53 AM on Thursday 23 Oct 2014 (Local Time) from KBNA Reporting Station
Few Clouds Few Clouds  
Wind Chill: 11°   Ceiling: Unl
Heat Index: 11°   Visibility: 10mi
Dew Point:   Wind: 10mph
Humidity: 69%   Direction: 70°ENE
Pressure: 30.24"   Gusts: NA
Location:  35.7808°N, 86.7221°W
Report Text: KBNA 231453Z 07009KT 10SM FEW230 11/06 A3024 RMK AO2 SLP238 T01110056 53002
Loading
Personal Weather Stations






























Interactive Weather Map
Tropical Storm Tracking
New forecast layout! Learn more

10-Day Weather Forecast

Advertisements
Track Severe Weather on mobile